createdAt,value
2019-05-25T00:01:07.617Z,8.10
2019-05-25T00:03:34.991Z,7.47
2019-05-25T00:06:03.478Z,7.53
2019-05-25T00:08:31.222Z,8.17
2019-05-25T00:10:58.553Z,7.40
2019-05-25T00:13:26.143Z,6.37
2019-05-25T00:15:53.547Z,6.70
2019-05-25T00:18:20.665Z,7.80
2019-05-25T00:20:47.822Z,8.33
2019-05-25T00:23:15.654Z,7.97
2019-05-25T00:25:42.845Z,8.57
2019-05-25T00:28:10.082Z,8.00
2019-05-25T00:30:37.435Z,8.63
2019-05-25T00:33:04.635Z,9.10
2019-05-25T00:35:32.239Z,8.77
2019-05-25T00:37:59.438Z,9.50
2019-05-25T00:40:26.901Z,8.30
2019-05-25T00:42:54.224Z,8.57
2019-05-25T00:45:21.549Z,8.60
2019-05-25T00:47:48.552Z,8.07
2019-05-25T00:50:15.750Z,7.63
2019-05-25T00:52:43.250Z,8.33
2019-05-25T00:55:10.515Z,7.93
2019-05-25T00:57:38.311Z,7.93
2019-05-25T01:00:05.910Z,8.80
2019-05-25T01:02:33.653Z,8.20
2019-05-25T01:05:00.641Z,8.20
2019-05-25T01:07:28.090Z,7.70
2019-05-25T01:09:56.354Z,8.03
2019-05-25T01:12:23.422Z,7.97
2019-05-25T01:14:50.502Z,8.30
2019-05-25T01:17:17.571Z,7.70
2019-05-25T01:19:46.178Z,8.70
2019-05-25T01:22:13.252Z,7.37
2019-05-25T01:24:44.451Z,7.13
2019-05-25T01:27:10.128Z,8.27
2019-05-25T01:29:37.625Z,7.60
2019-05-25T01:32:04.786Z,6.50
2019-05-25T01:34:32.222Z,7.33
2019-05-25T01:36:59.346Z,7.60
2019-05-25T01:39:26.420Z,7.30
2019-05-25T01:41:53.403Z,7.50
2019-05-25T01:44:20.758Z,7.80
2019-05-25T01:46:48.387Z,8.07
2019-05-25T01:49:15.358Z,6.63
2019-05-25T01:51:42.433Z,7.57
2019-05-25T01:54:09.642Z,7.70
2019-05-25T01:56:36.733Z,8.20
2019-05-25T01:59:03.970Z,8.00
2019-05-25T02:01:31.057Z,7.93
2019-05-25T02:03:58.312Z,8.63
2019-05-25T02:06:25.486Z,8.73
2019-05-25T02:08:52.697Z,8.60
2019-05-25T02:11:20.057Z,8.30
2019-05-25T02:13:47.230Z,9.40
2019-05-25T02:16:14.519Z,9.07
2019-05-25T02:18:45.378Z,8.47
2019-05-25T02:21:11.006Z,8.57
2019-05-25T02:23:38.174Z,8.13
2019-05-25T02:26:05.618Z,9.20
2019-05-25T02:28:32.837Z,8.63
2019-05-25T02:31:00.060Z,8.10
2019-05-25T02:33:27.129Z,8.47
2019-05-25T02:35:54.229Z,10.10
2019-05-25T02:38:21.442Z,8.27
2019-05-25T02:40:48.681Z,8.07
2019-05-25T02:43:15.878Z,8.30
2019-05-25T02:45:43.074Z,9.00
2019-05-25T02:48:10.166Z,8.40
2019-05-25T02:50:37.244Z,8.13
2019-05-25T02:53:04.669Z,9.70
2019-05-25T02:55:34.779Z,9.13
2019-05-25T02:58:01.029Z,10.00
2019-05-25T03:00:32.435Z,8.73
2019-05-25T03:03:00.362Z,10.23
2019-05-25T03:05:27.607Z,8.80
2019-05-25T03:07:56.496Z,9.40
2019-05-25T03:10:23.672Z,9.37
2019-05-25T03:12:51.996Z,10.30
2019-05-25T03:15:19.430Z,9.50
2019-05-25T03:17:46.866Z,9.13
2019-05-25T03:20:14.589Z,9.53
2019-05-25T03:22:41.836Z,9.63
2019-05-25T03:25:09.277Z,10.10
2019-05-25T03:27:36.267Z,9.63
2019-05-25T03:30:04.844Z,9.93
2019-05-25T03:32:32.270Z,9.67
2019-05-25T03:34:59.777Z,9.80
2019-05-25T03:37:27.046Z,10.23
2019-05-25T03:39:54.224Z,10.40
2019-05-25T03:42:21.799Z,9.93
2019-05-25T03:44:48.974Z,9.93
2019-05-25T03:47:16.069Z,9.97
2019-05-25T03:49:43.144Z,9.33
2019-05-25T03:52:10.722Z,9.77
2019-05-25T03:54:37.917Z,9.73
2019-05-25T03:57:06.005Z,8.93
2019-05-25T03:59:33.073Z,9.97
2019-05-25T04:02:00.170Z,10.40
2019-05-25T04:04:27.151Z,10.60
2019-05-25T04:06:54.584Z,10.47
2019-05-25T04:09:21.901Z,10.60
2019-05-25T04:11:49.174Z,9.33
2019-05-25T04:14:16.249Z,9.90
2019-05-25T04:16:43.372Z,10.83
2019-05-25T04:19:10.356Z,10.67
2019-05-25T04:21:37.661Z,10.30
2019-05-25T04:24:04.750Z,10.13
2019-05-25T04:26:32.173Z,10.20
2019-05-25T04:28:59.509Z,10.57
2019-05-25T04:31:27.570Z,9.70
2019-05-25T04:33:55.002Z,10.20
2019-05-25T04:36:22.094Z,10.03
2019-05-25T04:38:49.269Z,11.50
2019-05-25T04:41:16.853Z,10.80
2019-05-25T04:43:44.229Z,10.50
2019-05-25T04:46:11.641Z,11.13
2019-05-25T04:48:38.649Z,11.13
2019-05-25T04:51:05.815Z,11.37
2019-05-25T04:53:33.002Z,10.67
2019-05-25T04:55:59.965Z,11.83
2019-05-25T04:58:27.576Z,11.37
2019-05-25T05:00:54.959Z,12.53
2019-05-25T05:03:22.233Z,12.63
2019-05-25T05:05:49.764Z,12.33
2019-05-25T05:08:17.022Z,13.37
2019-05-25T05:10:44.457Z,12.00
2019-05-25T05:13:11.651Z,12.50
2019-05-25T05:15:38.705Z,13.33
2019-05-25T05:18:05.773Z,12.93
2019-05-25T05:20:33.195Z,13.77
2019-05-25T05:23:00.463Z,13.50
2019-05-25T05:25:27.578Z,15.43
2019-05-25T05:27:54.780Z,14.40
2019-05-25T05:30:30.772Z,15.30
2019-05-25T05:32:58.033Z,13.47
2019-05-25T05:35:25.320Z,14.00
2019-05-25T05:37:52.468Z,14.57
2019-05-25T05:40:19.873Z,14.53
2019-05-25T05:42:49.340Z,15.27
2019-05-25T05:45:16.636Z,14.10
2019-05-25T05:47:45.638Z,14.10
2019-05-25T05:50:12.909Z,14.37
2019-05-25T05:52:40.413Z,14.60
2019-05-25T05:55:09.250Z,22.90
2019-05-25T05:57:36.631Z,25.10
2019-05-25T06:00:05.201Z,27.43
2019-05-25T06:02:32.690Z,23.73
2019-05-25T06:04:59.989Z,16.47
2019-05-25T06:07:27.602Z,14.07
2019-05-25T06:09:54.801Z,15.60
2019-05-25T06:12:21.985Z,13.30
2019-05-25T06:14:48.973Z,14.53
2019-05-25T06:17:16.117Z,16.00
2019-05-25T06:19:43.426Z,15.53
2019-05-25T06:22:10.583Z,14.43
2019-05-25T06:24:37.993Z,15.00
2019-05-25T06:27:05.169Z,15.90
2019-05-25T06:29:32.617Z,15.93
2019-05-25T06:31:59.695Z,15.50
2019-05-25T06:34:26.838Z,16.20
2019-05-25T06:36:55.739Z,16.60
2019-05-25T06:39:22.949Z,15.77
2019-05-25T06:41:50.195Z,16.23
2019-05-25T06:44:17.504Z,15.50
2019-05-25T06:46:44.970Z,15.87
2019-05-25T06:49:12.276Z,17.63
2019-05-25T06:51:39.367Z,17.73
2019-05-25T06:54:06.554Z,17.60
2019-05-25T06:56:33.756Z,17.30
2019-05-25T06:59:01.199Z,17.43
2019-05-25T07:01:28.281Z,16.80
2019-05-25T07:03:55.448Z,16.60
2019-05-25T07:06:22.419Z,16.53
2019-05-25T07:08:49.628Z,17.10
2019-05-25T07:11:16.816Z,16.63
2019-05-25T07:13:43.890Z,17.10
2019-05-25T07:16:11.090Z,15.57
2019-05-25T07:18:38.265Z,17.07
2019-05-25T07:21:05.372Z,16.50
2019-05-25T07:23:32.549Z,16.47
2019-05-25T07:25:59.610Z,17.13
2019-05-25T07:28:26.793Z,17.77
2019-05-25T07:30:54.002Z,18.27
2019-05-25T07:33:21.349Z,18.33
2019-05-25T07:35:48.470Z,18.00
2019-05-25T07:38:15.810Z,19.13
2019-05-25T07:40:43.009Z,17.33
2019-05-25T07:43:10.115Z,16.53
2019-05-25T07:45:37.213Z,16.53
2019-05-25T07:48:04.654Z,15.37
2019-05-25T07:50:31.813Z,17.50
2019-05-25T07:52:58.882Z,16.43
2019-05-25T07:55:25.967Z,16.67
2019-05-25T07:57:53.341Z,15.20
2019-05-25T08:00:20.857Z,17.20
2019-05-25T08:02:48.299Z,17.67
2019-05-25T08:05:16.556Z,14.43
2019-05-25T08:07:43.726Z,16.73
2019-05-25T08:10:11.378Z,16.23
2019-05-25T08:12:38.579Z,17.60
2019-05-25T08:15:06.478Z,16.30
2019-05-25T08:17:35.270Z,16.37
2019-05-25T08:20:03.138Z,51.47
2019-05-25T08:22:31.533Z,65.10
2019-05-25T08:24:58.613Z,28.60
2019-05-25T08:27:25.717Z,25.00
2019-05-25T08:29:53.146Z,61.80
2019-05-25T08:32:20.247Z,24.23
2019-05-25T08:34:47.717Z,39.40
2019-05-25T08:37:15.112Z,39.10
2019-05-25T08:39:42.097Z,47.13
2019-05-25T08:42:09.206Z,115.67
2019-05-25T08:44:36.635Z,50.57
2019-05-25T08:47:03.880Z,33.47
2019-05-25T08:49:31.154Z,23.50
2019-05-25T08:51:58.491Z,22.30
2019-05-25T08:54:25.719Z,22.00
2019-05-25T08:56:52.908Z,23.90
2019-05-25T08:59:20.341Z,28.20
2019-05-25T09:01:47.835Z,59.10
2019-05-25T09:04:15.195Z,33.70
2019-05-25T09:06:42.291Z,27.30
2019-05-25T09:09:09.510Z,26.90
2019-05-25T09:11:37.195Z,25.80
2019-05-25T09:14:04.671Z,24.13
2019-05-25T09:16:32.188Z,23.87
2019-05-25T09:18:59.641Z,25.10
2019-05-25T09:21:26.942Z,22.13
2019-05-25T09:23:54.519Z,22.27
2019-05-25T09:26:21.577Z,22.20
2019-05-25T09:29:03.498Z,23.90
2019-05-25T09:31:18.097Z,21.80
2019-05-25T09:33:45.725Z,21.27
2019-05-25T09:36:13.062Z,21.60
2019-05-25T09:38:43.239Z,20.17
2019-05-25T09:41:09.418Z,19.30
2019-05-25T09:43:36.813Z,19.23
2019-05-25T09:46:04.338Z,19.77
2019-05-25T09:48:31.698Z,34.80
2019-05-25T09:50:58.866Z,22.87
2019-05-25T09:53:25.993Z,15.37
2019-05-25T09:55:53.156Z,13.70
2019-05-25T09:58:20.238Z,12.17
2019-05-25T10:00:47.423Z,13.60
2019-05-25T10:03:14.705Z,24.53
2019-05-25T10:05:41.870Z,38.60
2019-05-25T10:08:09.082Z,46.47
2019-05-25T10:10:36.275Z,51.53
2019-05-25T10:13:03.463Z,53.13
2019-05-25T10:15:30.679Z,69.67
2019-05-25T10:17:57.879Z,89.83
2019-05-25T10:20:25.212Z,39.73
2019-05-25T10:22:52.478Z,21.87
2019-05-25T10:25:19.852Z,21.10
2019-05-25T10:27:47.032Z,16.13
2019-05-25T10:30:15.208Z,33.07
2019-05-25T10:32:42.299Z,44.23
2019-05-25T10:35:09.877Z,54.00
2019-05-25T10:37:37.132Z,78.70
2019-05-25T10:40:05.819Z,117.10
2019-05-25T10:42:33.090Z,76.03
2019-05-25T10:45:00.501Z,89.60
2019-05-25T10:47:27.916Z,78.87
2019-05-25T10:49:55.433Z,66.47
2019-05-25T10:52:22.601Z,24.90
2019-05-25T10:54:49.786Z,17.90
2019-05-25T10:57:17.253Z,15.57
2019-05-25T10:59:52.843Z,14.97
2019-05-25T11:02:13.961Z,14.83
2019-05-25T11:04:40.964Z,13.97
2019-05-25T11:07:08.139Z,14.97
2019-05-25T11:09:35.231Z,16.80
2019-05-25T11:12:02.427Z,15.70
2019-05-25T11:14:30.269Z,15.90
2019-05-25T11:16:57.706Z,14.80
2019-05-25T11:19:28.085Z,17.23
2019-05-25T11:21:55.246Z,18.67
2019-05-25T11:24:22.466Z,19.33
2019-05-25T11:26:49.666Z,19.13
2019-05-25T11:29:16.857Z,18.20
2019-05-25T11:31:53.947Z,18.40
2019-05-25T11:34:13.408Z,16.90
2019-05-25T11:36:40.573Z,16.30
2019-05-25T11:39:07.770Z,18.80
2019-05-25T11:41:34.945Z,20.07
2019-05-25T11:44:02.234Z,18.50
2019-05-25T11:46:29.559Z,17.73
2019-05-25T11:48:57.024Z,17.37
2019-05-25T11:51:24.227Z,17.93
2019-05-25T11:53:51.489Z,16.97
2019-05-25T11:56:18.704Z,16.97
2019-05-25T11:58:47.752Z,17.93
2019-05-25T12:01:15.334Z,18.67
2019-05-25T12:03:42.423Z,15.70
2019-05-25T12:06:09.754Z,19.03
2019-05-25T12:08:37.069Z,15.47
2019-05-25T12:11:04.266Z,14.90
2019-05-25T12:13:32.172Z,15.20
2019-05-25T12:15:59.622Z,15.70
2019-05-25T12:18:27.047Z,16.10
2019-05-25T12:20:54.094Z,18.70
2019-05-25T12:23:21.163Z,17.10
2019-05-25T12:25:48.523Z,15.93
2019-05-25T12:28:15.690Z,15.93
2019-05-25T12:30:43.149Z,15.30
2019-05-25T12:33:10.590Z,15.73
2019-05-25T12:35:37.858Z,15.13
2019-05-25T12:38:05.200Z,12.60
2019-05-25T12:40:32.467Z,13.50
2019-05-25T12:42:59.451Z,14.90
2019-05-25T12:45:26.867Z,13.80
2019-05-25T12:47:54.288Z,12.30
2019-05-25T12:50:21.966Z,12.60
2019-05-25T12:52:49.474Z,12.00
2019-05-25T12:55:16.854Z,10.40
2019-05-25T12:57:44.294Z,10.83
2019-05-25T13:00:16.142Z,8.07
2019-05-25T13:02:42.354Z,9.60
2019-05-25T13:05:09.902Z,8.40
2019-05-25T13:07:37.078Z,8.30
2019-05-25T13:10:04.581Z,7.53
2019-05-25T13:12:31.740Z,7.63
2019-05-25T13:14:59.132Z,7.00
2019-05-25T13:17:26.202Z,7.10
2019-05-25T13:19:53.394Z,7.80
2019-05-25T13:22:20.622Z,13.20
2019-05-25T13:24:48.016Z,11.80
2019-05-25T13:27:15.562Z,8.73
2019-05-25T13:29:42.862Z,6.57
2019-05-25T13:32:10.062Z,23.47
2019-05-25T13:34:37.230Z,15.97
2019-05-25T13:37:04.827Z,7.00
2019-05-25T13:39:31.994Z,71.40
2019-05-25T13:41:59.350Z,44.13
2019-05-25T13:44:26.794Z,12.80
2019-05-25T13:46:53.991Z,6.70
2019-05-25T13:49:21.452Z,5.80
2019-05-25T13:51:48.800Z,11.40
2019-05-25T13:54:16.078Z,7.70
2019-05-25T13:56:43.333Z,7.00
2019-05-25T13:59:10.757Z,5.57
2019-05-25T14:01:38.583Z,6.67
2019-05-25T14:04:06.022Z,5.47
2019-05-25T14:06:33.463Z,5.20
2019-05-25T14:09:00.536Z,6.50
2019-05-25T14:11:27.647Z,5.73
2019-05-25T14:13:54.949Z,59.83
2019-05-25T14:16:22.536Z,25.53
2019-05-25T14:18:49.626Z,13.50
2019-05-25T14:21:16.617Z,9.10
2019-05-25T14:23:43.903Z,8.20
2019-05-25T14:26:12.378Z,6.37
2019-05-25T14:28:39.561Z,5.60
2019-05-25T14:31:06.675Z,5.60
2019-05-25T14:33:33.771Z,5.40
2019-05-25T14:36:01.042Z,5.83
2019-05-25T14:38:28.527Z,7.67
2019-05-25T14:40:55.975Z,6.93
2019-05-25T14:43:23.446Z,7.70
2019-05-25T14:45:53.348Z,6.97
2019-05-25T14:48:19.941Z,8.37
2019-05-25T14:50:47.397Z,7.27
2019-05-25T14:53:14.794Z,7.00
2019-05-25T14:55:42.296Z,7.03
2019-05-25T14:58:12.760Z,7.03
2019-05-25T15:00:38.957Z,7.57
2019-05-25T15:03:07.169Z,6.50
2019-05-25T15:05:34.672Z,7.60
2019-05-25T15:08:01.881Z,6.70
2019-05-25T15:10:29.356Z,6.70
2019-05-25T15:12:56.537Z,6.93
2019-05-25T15:15:23.757Z,6.97
2019-05-25T15:17:50.878Z,6.50
2019-05-25T15:20:18.180Z,5.73
2019-05-25T15:22:47.063Z,5.90
2019-05-25T15:25:15.484Z,5.80
2019-05-25T15:27:42.685Z,6.10
2019-05-25T15:30:11.682Z,7.17
2019-05-25T15:32:39.138Z,7.30
2019-05-25T15:35:06.748Z,7.77
2019-05-25T15:37:33.937Z,6.87
2019-05-25T15:40:01.929Z,6.73
2019-05-25T15:42:29.437Z,7.07
2019-05-25T15:44:56.905Z,8.03
2019-05-25T15:47:24.349Z,7.20
2019-05-25T15:49:51.632Z,7.00
2019-05-25T15:52:19.065Z,6.30
2019-05-25T15:54:46.622Z,6.57
2019-05-25T15:57:13.740Z,9.00
2019-05-25T15:59:40.928Z,6.47
2019-05-25T16:02:08.468Z,6.50
2019-05-25T16:04:35.795Z,5.87
2019-05-25T16:07:03.519Z,6.40
2019-05-25T16:09:30.707Z,5.17
2019-05-25T16:11:58.310Z,6.40
2019-05-25T16:14:25.438Z,6.37
2019-05-25T16:16:53.027Z,7.50
2019-05-25T16:19:20.290Z,6.30
2019-05-25T16:21:47.479Z,7.20
2019-05-25T16:24:15.035Z,7.10
2019-05-25T16:26:45.945Z,6.70
2019-05-25T16:29:11.789Z,6.77
2019-05-25T16:31:39.124Z,5.87
2019-05-25T16:34:06.726Z,6.20
2019-05-25T16:36:34.509Z,5.83
2019-05-25T16:39:01.753Z,4.73
2019-05-25T16:41:30.537Z,5.33
2019-05-25T16:43:57.734Z,5.40
2019-05-25T16:46:25.163Z,4.40
2019-05-25T16:48:52.456Z,4.33
2019-05-25T16:51:20.082Z,4.27
2019-05-25T16:53:47.629Z,4.40
2019-05-25T16:56:14.844Z,4.13
2019-05-25T16:58:42.189Z,3.93
2019-05-25T17:01:09.724Z,4.43
2019-05-25T17:03:37.485Z,4.47
2019-05-25T17:06:04.971Z,4.23
2019-05-25T17:08:32.334Z,4.00
2019-05-25T17:10:59.714Z,4.07
2019-05-25T17:13:27.127Z,3.80
2019-05-25T17:15:54.604Z,4.27
2019-05-25T17:18:22.152Z,3.70
2019-05-25T17:20:49.408Z,4.40
2019-05-25T17:23:16.602Z,4.60
2019-05-25T17:25:44.307Z,4.30
2019-05-25T17:28:11.784Z,3.63
2019-05-25T17:30:41.258Z,4.53
2019-05-25T17:33:09.310Z,4.20
2019-05-25T17:35:36.677Z,3.80
2019-05-25T17:38:03.881Z,4.33
2019-05-25T17:40:31.386Z,4.00
2019-05-25T17:42:58.897Z,4.20
2019-05-25T17:45:26.085Z,3.67
2019-05-25T17:47:53.317Z,4.17
2019-05-25T17:50:20.748Z,3.47
2019-05-25T17:52:47.925Z,3.70
2019-05-25T17:55:15.113Z,4.17
2019-05-25T17:57:42.363Z,5.50
2019-05-25T18:00:10.578Z,5.33
2019-05-25T18:02:38.127Z,5.37
2019-05-25T18:05:06.083Z,5.43
2019-05-25T18:07:33.248Z,5.60
2019-05-25T18:10:00.469Z,5.73
2019-05-25T18:12:27.703Z,4.73
2019-05-25T18:14:54.845Z,4.90
2019-05-25T18:17:22.307Z,5.40
2019-05-25T18:19:50.920Z,5.20
2019-05-25T18:22:18.436Z,6.17
2019-05-25T18:24:45.938Z,6.10
2019-05-25T18:27:13.116Z,6.40
2019-05-25T18:29:40.814Z,6.67
2019-05-25T18:32:08.150Z,6.33
2019-05-25T18:34:35.525Z,6.53
2019-05-25T18:37:02.764Z,6.20
2019-05-25T18:39:30.316Z,6.60
2019-05-25T18:41:57.522Z,6.50
2019-05-25T18:44:25.076Z,7.13
2019-05-25T18:46:52.271Z,5.97
2019-05-25T18:49:19.510Z,6.80
2019-05-25T18:51:46.709Z,6.23
2019-05-25T18:54:13.874Z,6.43
2019-05-25T18:56:41.366Z,7.10
2019-05-25T18:59:13.069Z,7.00
2019-05-25T19:01:40.535Z,6.90
2019-05-25T19:04:07.950Z,6.60
2019-05-25T19:06:35.166Z,7.50
2019-05-25T19:09:02.864Z,7.10
2019-05-25T19:11:30.312Z,7.63
2019-05-25T19:13:57.548Z,7.00
2019-05-25T19:16:24.945Z,6.93
2019-05-25T19:18:52.218Z,7.23
2019-05-25T19:21:19.410Z,7.10
2019-05-25T19:23:46.857Z,7.20
2019-05-25T19:26:14.101Z,7.87
2019-05-25T19:28:41.723Z,7.80
2019-05-25T19:31:08.927Z,7.13
2019-05-25T19:33:36.006Z,6.93
2019-05-25T19:36:03.486Z,7.67
2019-05-25T19:38:30.746Z,7.30
2019-05-25T19:40:57.963Z,7.43
2019-05-25T19:43:25.512Z,6.97
2019-05-25T19:45:52.746Z,7.37
2019-05-25T19:48:20.528Z,6.60
2019-05-25T19:50:48.277Z,7.20
2019-05-25T19:53:19.713Z,7.10
2019-05-25T19:55:46.892Z,7.77
2019-05-25T19:58:14.337Z,6.77
2019-05-25T20:00:41.628Z,6.60
2019-05-25T20:03:09.038Z,6.90
2019-05-25T20:05:36.529Z,6.60
2019-05-25T20:08:03.839Z,7.73
2019-05-25T20:10:31.410Z,7.70
2019-05-25T20:12:58.593Z,7.33
2019-05-25T20:15:26.125Z,7.53
2019-05-25T20:17:53.457Z,6.73
2019-05-25T20:20:20.900Z,6.97
2019-05-25T20:22:47.996Z,6.57
2019-05-25T20:25:15.410Z,7.00
2019-05-25T20:27:42.751Z,6.83
2019-05-25T20:30:10.206Z,7.20
2019-05-25T20:32:37.519Z,6.77
2019-05-25T20:35:05.119Z,7.07
2019-05-25T20:37:32.250Z,7.83
2019-05-25T20:39:59.630Z,7.60
2019-05-25T20:42:26.838Z,9.03
2019-05-25T20:44:53.982Z,7.90
2019-05-25T20:47:21.621Z,7.23
2019-05-25T20:49:48.897Z,6.77
2019-05-25T20:52:16.266Z,7.50
2019-05-25T20:54:43.592Z,6.97
2019-05-25T20:57:10.906Z,7.40
2019-05-25T20:59:38.366Z,6.77
2019-05-25T21:02:06.704Z,6.83
2019-05-25T21:04:34.077Z,6.80
2019-05-25T21:07:01.741Z,8.10
2019-05-25T21:09:28.935Z,22.60
2019-05-25T21:11:57.019Z,17.80
2019-05-25T21:14:24.007Z,11.87
2019-05-25T21:16:51.346Z,9.90
2019-05-25T21:19:18.501Z,9.00
2019-05-25T21:21:45.737Z,9.77
2019-05-25T21:24:13.200Z,9.07
2019-05-25T21:26:40.702Z,8.03
2019-05-25T21:29:08.035Z,7.40
2019-05-25T21:31:35.510Z,8.17
2019-05-25T21:34:02.843Z,7.83
2019-05-25T21:36:30.182Z,9.20
2019-05-25T21:38:57.650Z,9.20
2019-05-25T21:41:24.940Z,8.43
2019-05-25T21:43:52.032Z,8.20
2019-05-25T21:46:19.369Z,7.40
2019-05-25T21:48:46.810Z,9.07
2019-05-25T21:51:14.262Z,9.43
2019-05-25T21:53:42.343Z,8.63
2019-05-25T21:56:09.462Z,8.00
2019-05-25T21:58:36.795Z,8.30
2019-05-25T22:01:05.308Z,7.57
2019-05-25T22:03:34.443Z,7.20
2019-05-25T22:06:02.877Z,6.93
2019-05-25T22:08:30.313Z,6.53
2019-05-25T22:10:57.559Z,6.93
2019-05-25T22:13:28.696Z,6.77
2019-05-25T22:15:53.920Z,8.90
2019-05-25T22:18:21.488Z,9.60
2019-05-25T22:20:49.888Z,9.43
2019-05-25T22:23:17.223Z,7.20
2019-05-25T22:25:44.397Z,7.20
2019-05-25T22:28:11.681Z,7.13
2019-05-25T22:30:39.218Z,6.87
2019-05-25T22:33:06.428Z,6.97
2019-05-25T22:35:34.037Z,7.50
2019-05-25T22:38:02.502Z,7.40
2019-05-25T22:40:29.564Z,7.00
2019-05-25T22:42:56.741Z,6.90
2019-05-25T22:45:23.938Z,7.27
2019-05-25T22:47:51.128Z,6.33
2019-05-25T22:50:18.396Z,6.87
2019-05-25T22:52:45.582Z,6.93
2019-05-25T22:55:12.904Z,7.10
2019-05-25T22:57:40.114Z,9.23
2019-05-25T23:00:09.259Z,8.77
2019-05-25T23:02:37.688Z,11.07
2019-05-25T23:05:07.264Z,10.13
2019-05-25T23:07:34.567Z,9.93
2019-05-25T23:10:01.762Z,9.30
2019-05-25T23:12:28.842Z,9.77
2019-05-25T23:14:56.358Z,10.67
2019-05-25T23:17:23.451Z,9.90
2019-05-25T23:19:50.574Z,8.83
2019-05-25T23:22:18.725Z,8.27
2019-05-25T23:24:45.966Z,7.87
2019-05-25T23:27:16.001Z,7.77
2019-05-25T23:29:43.442Z,8.33
2019-05-25T23:32:10.538Z,8.50
2019-05-25T23:34:37.723Z,7.67
2019-05-25T23:37:14.141Z,8.00
2019-05-25T23:39:33.898Z,8.43
2019-05-25T23:42:01.355Z,7.30
2019-05-25T23:44:28.582Z,6.97
2019-05-25T23:46:56.277Z,6.50
2019-05-25T23:49:23.374Z,7.50
2019-05-25T23:51:51.074Z,9.30
2019-05-25T23:54:18.190Z,8.23
2019-05-25T23:56:45.390Z,8.30
2019-05-25T23:59:12.508Z,9.00
